Time;durP1;ratioP1;P1;durP2;ratioP2;P2;SDS_P1;SDS_P2;PMS_P1;PMS_P2;Temp;Humidity;BMP_temperature;BMP_pressure;BME280_temperature;BME280_humidity;BME280_pressure;Samples;Min_cycle;Max_cycle;Signal;HPM_P1;HPM_P2
2022/02/05 00:00:46;;;;;;;1.42;1.15;;;3.50;99.90;;;3.42;78.53;100277.75;5013541;28;20207;-69
2022/02/05 00:03:21;;;;;;;1.95;0.90;;;3.50;99.90;;;3.43;78.48;100291.97;5013546;28;20196;-70
2022/02/05 00:05:53;;;;;;;1.52;1.25;;;3.50;99.90;;;3.42;78.89;100293.78;5013374;28;20178;-70
2022/02/05 00:08:41;;;;;;;1.95;1.20;;;3.50;99.90;;;3.44;79.10;100296.28;5012806;28;20228;-71
2022/02/05 00:39:23;;;;;;;2.63;1.85;;;3.60;99.90;;;3.59;78.17;100372.16;5013945;28;20201;-71
2022/02/05 00:41:55;;;;;;;4.10;1.30;;;3.60;99.90;;;3.60;78.28;100368.47;5013730;28;20389;-69
2022/02/05 00:44:23;;;;;;;4.97;2.20;;;3.60;99.90;;;3.66;77.97;100375.00;5014148;28;20182;-71
2022/02/05 00:46:53;;;;;;;3.70;1.90;;;3.70;99.90;;;3.64;77.92;100372.50;5012843;28;20179;-71
2022/02/05 00:49:22;;;;;;;6.00;2.20;;;3.70;99.90;;;3.62;77.89;100374.50;5013292;28;20214;-71
2022/02/05 00:51:54;;;;;;;2.20;1.58;;;3.60;99.90;;;3.63;78.11;100386.88;5011727;28;20661;-70
2022/02/05 00:54:25;;;;;;;4.55;1.95;;;3.70;99.90;;;3.67;77.80;100393.56;5012761;28;20232;-69
2022/02/05 00:57:19;;;;;;;3.40;2.42;;;3.70;99.90;;;3.66;77.56;100391.91;5012981;28;20194;-71
2022/02/05 00:59:48;;;;;;;4.80;3.08;;;3.70;99.90;;;3.64;77.82;100398.41;5012861;28;20531;-70
2022/02/05 01:02:18;;;;;;;3.30;2.10;;;3.70;99.90;;;3.64;77.61;100399.25;5013650;28;20193;-70
2022/02/05 01:04:47;;;;;;;4.85;3.15;;;3.70;99.90;;;3.72;77.83;100401.09;5014141;28;20209;-70
2022/02/05 01:07:15;;;;;;;2.50;2.30;;;3.70;99.90;;;3.70;78.11;100406.59;4996722;28;20619;-69
2022/02/05 01:09:47;;;;;;;3.80;2.97;;;3.70;99.90;;;3.66;78.21;100413.31;5013672;28;20756;-70
2022/02/05 01:12:17;;;;;;;5.88;2.95;;;3.70;99.90;;;3.61;78.86;100420.16;5014609;28;20210;-70
2022/02/05 01:14:50;;;;;;;2.75;2.55;;;3.70;99.90;;;3.59;79.17;100425.66;5015237;28;20233;-69
2022/02/05 01:17:27;;;;;;;7.10;2.97;;;3.60;99.90;;;3.67;78.97;100427.53;5014256;28;20206;-70
2022/02/05 01:20:31;;;;;;;3.35;2.28;;;3.70;99.90;;;3.65;78.63;100426.84;5016205;28;20219;-70
2022/02/05 01:23:04;;;;;;;11.65;3.50;;;3.70;99.90;;;3.66;78.67;100428.50;5030255;28;20196;-69
2022/02/05 01:25:37;;;;;;;12.57;3.58;;;3.70;99.90;;;3.70;78.42;100430.69;5035114;28;20193;-69
2022/02/05 01:28:11;;;;;;;4.22;2.53;;;3.70;99.90;;;3.73;78.28;100435.69;5037531;28;20593;-69
2022/02/05 01:30:43;;;;;;;5.00;2.83;;;3.70;99.90;;;3.75;78.01;100431.00;5036285;28;20181;-69
2022/02/05 01:33:32;;;;;;;4.57;2.65;;;3.80;99.90;;;3.76;78.04;100431.84;5036381;28;20192;-69
2022/02/05 01:36:18;;;;;;;4.97;2.55;;;3.80;99.90;;;3.83;77.59;100440.84;5036394;28;20668;-70
2022/02/05 01:50:30;;;;;;;8.20;3.30;;;4.00;99.90;;;4.00;76.21;100447.88;5034617;28;20205;-70
2022/02/05 01:56:10;;;;;;;7.05;2.75;;;4.00;99.90;;;4.01;76.04;100457.59;5022102;28;20213;-70
2022/02/05 01:58:40;;;;;;;5.30;2.95;;;4.10;99.90;;;4.02;75.25;100464.59;5022959;28;20228;-70
2022/02/05 02:09:54;;;;;;;6.50;3.13;;;4.10;99.90;;;4.07;75.20;100474.78;5022195;28;20209;-70
2022/02/05 02:12:25;;;;;;;9.27;3.35;;;4.10;99.90;;;4.06;74.84;100481.16;5014883;28;20182;-71
2022/02/05 02:15:00;;;;;;;8.40;2.50;;;4.10;99.90;;;4.06;75.35;100476.66;5014598;28;20210;-70
2022/02/05 02:18:06;;;;;;;7.60;3.05;;;4.10;99.90;;;4.07;75.12;100480.13;5014803;28;20204;-70
2022/02/05 02:20:48;;;;;;;12.15;3.10;;;4.10;99.90;;;4.02;75.25;100488.69;5018380;28;20193;-70
2022/02/05 02:23:32;;;;;;;9.98;2.85;;;4.10;99.90;;;3.90;74.88;100496.25;5021495;28;20265;-71
2022/02/05 02:26:08;;;;;;;4.97;2.85;;;4.00;99.90;;;3.84;75.21;100496.91;5022402;28;20241;-70
2022/02/05 02:28:46;;;;;;;6.53;2.22;;;3.90;99.90;;;3.71;75.33;100493.91;5016226;28;20571;-70
2022/02/05 02:31:19;;;;;;;15.07;3.35;;;3.80;99.90;;;3.70;75.20;100502.94;5014186;28;20178;-70
2022/02/05 02:33:48;;;;;;;10.43;2.92;;;3.80;99.90;;;3.76;75.13;100510.31;4997490;28;20680;-70
2022/02/05 02:36:28;;;;;;;5.93;2.72;;;3.80;99.90;;;3.85;75.02;100513.81;5014090;28;20240;-70
2022/02/05 02:39:04;;;;;;;10.60;3.78;;;3.80;99.90;;;3.86;74.83;100516.31;5014324;28;20217;-69
2022/02/05 02:41:41;;;;;;;6.40;2.50;;;3.90;99.90;;;3.93;75.03;100522.66;5013886;28;20186;-69
2022/02/05 02:44:09;;;;;;;9.10;2.40;;;3.90;99.90;;;3.94;74.60;100524.34;5013904;28;20178;-70
2022/02/05 02:46:38;;;;;;;15.00;3.50;;;3.90;99.90;;;3.98;74.34;100532.03;5013984;28;20261;-70
2022/02/05 02:49:10;;;;;;;9.10;3.03;;;4.00;99.90;;;4.02;74.68;100531.53;5013995;28;20271;-70
2022/02/05 02:57:17;;;;;;;14.95;2.90;;;4.00;99.90;;;4.04;74.04;100550.09;5013693;28;20194;-70
2022/02/05 02:59:55;;;;;;;14.65;3.33;;;4.10;99.90;;;4.08;73.99;100557.63;5013745;28;20209;-70
2022/02/05 03:02:26;;;;;;;14.68;4.15;;;4.10;99.90;;;4.06;74.65;100546.25;5013465;28;20183;-70
2022/02/05 03:04:58;;;;;;;8.57;2.78;;;4.10;99.90;;;4.14;73.96;100553.44;5012971;28;20202;-70
2022/02/05 03:07:28;;;;;;;7.72;3.35;;;4.10;99.90;;;4.16;73.91;100556.81;5013122;28;20227;-69
2022/02/05 03:09:57;;;;;;;8.52;3.53;;;4.10;99.90;;;4.20;73.25;100560.81;5013081;28;20584;-70
2022/02/05 03:12:26;;;;;;;2.75;2.55;;;4.20;99.90;;;4.20;73.51;100556.28;5013481;28;20278;-69
2022/02/05 03:14:54;;;;;;;3.42;2.50;;;4.20;99.90;;;4.25;73.30;100555.78;5013074;28;20179;-68
2022/02/05 03:17:25;;;;;;;11.55;4.20;;;4.20;99.90;;;4.25;72.87;100561.13;5013294;28;20206;-69
2022/02/05 03:19:57;;;;;;;5.18;2.67;;;4.30;99.90;;;4.22;72.34;100558.78;4995524;28;20233;-71
2022/02/05 03:22:26;;;;;;;6.03;2.88;;;4.20;99.90;;;4.31;72.21;100558.59;5012962;28;20205;-70
2022/02/05 03:24:55;;;;;;;6.68;2.58;;;4.30;99.90;;;4.34;71.28;100558.28;5013108;28;20265;-69
2022/02/05 03:27:25;;;;;;;7.68;2.55;;;4.40;99.90;;;4.43;70.66;100560.94;5014289;28;20193;-69
2022/02/05 03:29:53;;;;;;;4.50;2.95;;;4.40;99.90;;;4.38;70.31;100554.25;5019679;28;20229;-69
2022/02/05 03:32:24;;;;;;;9.20;2.75;;;4.40;99.90;;;4.36;70.78;100563.44;5019886;28;20272;-70
2022/02/05 03:34:53;;;;;;;6.50;3.00;;;4.40;99.90;;;4.38;70.88;100564.13;5032174;28;20177;-69
2022/02/05 03:37:21;;;;;;;4.32;2.63;;;4.40;99.90;;;4.40;70.67;100555.94;5032638;28;20255;-70
2022/02/05 03:39:50;;;;;;;14.20;5.90;;;4.40;99.90;;;4.41;71.11;100566.44;5032628;28;20232;-69
2022/02/05 03:42:18;;;;;;;7.80;2.80;;;4.40;99.90;;;4.48;70.95;100562.09;5032093;28;20193;-69
2022/02/05 03:44:48;;;;;;;6.70;2.72;;;4.50;99.90;;;4.47;71.33;100571.13;5033189;28;20174;-69
2022/02/05 03:47:17;;;;;;;7.55;2.75;;;4.50;99.90;;;4.46;71.62;100572.13;5032885;28;20641;-70
2022/02/05 03:49:45;;;;;;;5.55;2.67;;;4.50;99.90;;;4.39;72.85;100571.16;5032335;28;20217;-70
2022/02/05 03:52:13;;;;;;;4.38;2.35;;;4.40;99.90;;;4.30;73.30;100577.53;5032580;28;20644;-71
2022/02/05 03:54:44;;;;;;;7.07;2.88;;;4.40;99.90;;;4.29;73.27;100570.50;5032460;28;20196;-70
2022/02/05 03:57:13;;;;;;;10.77;3.95;;;4.30;99.90;;;4.25;73.60;100578.06;5015345;28;20222;-70
2022/02/05 03:59:41;;;;;;;9.13;3.95;;;4.30;99.90;;;4.16;74.11;100578.22;5032896;28;20279;-71
2022/02/05 04:02:12;;;;;;;6.95;2.90;;;4.20;99.90;;;4.13;74.36;100570.50;5033699;28;20586;-70
2022/02/05 04:04:40;;;;;;;14.93;6.28;;;4.20;99.90;;;4.11;74.71;100588.59;5032438;28;20174;-69
2022/02/05 04:07:09;;;;;;;8.35;4.97;;;4.20;99.90;;;4.11;74.70;100585.94;5014406;28;20189;-70
2022/02/05 04:09:41;;;;;;;7.00;3.53;;;4.20;99.90;;;4.05;74.85;100592.78;5032955;28;20562;-70
2022/02/05 04:17:44;;;;;;;10.13;4.60;;;4.20;99.90;;;4.17;74.81;100595.94;5032782;28;20197;-70
2022/02/05 04:20:13;;;;;;;10.30;3.90;;;4.20;99.90;;;4.16;74.78;100607.69;5033448;28;20614;-69
2022/02/05 04:22:41;;;;;;;11.65;5.00;;;4.20;99.90;;;4.10;74.67;100614.53;5032827;28;20281;-70
2022/02/05 04:25:12;;;;;;;11.57;5.32;;;4.20;99.90;;;4.13;74.86;100611.53;5032490;28;20570;-69
2022/02/05 04:27:40;;;;;;;6.97;4.00;;;4.20;99.90;;;4.14;75.14;100617.72;5032629;28;20169;-69
2022/02/05 04:30:10;;;;;;;7.80;4.28;;;4.10;99.90;;;4.13;75.20;100618.72;5032560;28;20231;-71
2022/02/05 04:32:39;;;;;;;6.68;4.60;;;4.10;99.90;;;4.10;75.20;100617.22;5032562;28;20588;-70
2022/02/05 04:35:10;;;;;;;10.20;5.18;;;4.10;99.90;;;4.17;74.81;100617.38;5032065;28;20185;-70
2022/02/05 04:37:38;;;;;;;11.07;4.95;;;4.10;99.90;;;4.14;74.60;100628.44;5032466;28;20552;-71
2022/02/05 04:40:20;;;;;;;9.73;5.28;;;4.20;99.90;;;4.11;75.05;100613.53;5032807;28;20220;-69
2022/02/05 04:42:57;;;;;;;11.52;5.55;;;4.10;99.90;;;4.21;74.83;100626.78;5016128;28;20190;-70
2022/02/05 04:46:09;;;;;;;13.10;5.40;;;4.20;99.90;;;4.20;74.46;100623.25;5032983;28;20192;-69
2022/02/05 04:54:30;;;;;;;10.63;4.15;;;4.30;99.90;;;4.29;74.20;100629.44;5024709;28;20206;-69
2022/02/05 04:57:07;;;;;;;7.40;5.80;;;4.30;99.90;;;4.35;74.23;100639.47;5019188;28;20198;-70
2022/02/05 05:00:07;;;;;;;13.65;4.60;;;4.30;99.90;;;4.37;73.46;100632.09;5023992;28;20273;-70
2022/02/05 05:05:35;;;;;;;6.28;5.10;;;4.40;99.90;;;4.43;73.25;100638.63;5000562;28;20193;-70
2022/02/05 05:08:28;;;;;;;6.63;4.25;;;4.40;99.90;;;4.46;72.71;100641.81;5039874;28;20212;-69
2022/02/05 05:11:22;;;;;;;12.38;6.03;;;4.40;99.90;;;4.52;72.72;100638.44;5039896;28;20178;-69
2022/02/05 05:19:33;;;;;;;10.20;4.28;;;4.50;99.90;;;4.56;71.94;100657.69;5040229;28;20205;-69
2022/02/05 05:22:04;;;;;;;12.45;4.28;;;4.50;99.90;;;4.51;72.20;100655.53;5051505;23;20232;-70
2022/02/05 05:24:33;;;;;;;9.05;3.92;;;4.50;99.90;;;4.55;71.58;100656.84;5040899;28;20185;-70
2022/02/05 05:27:02;;;;;;;8.07;3.50;;;4.50;99.90;;;4.58;71.53;100648.50;5027498;28;20232;-70
2022/02/05 05:29:30;;;;;;;6.22;3.60;;;4.60;99.90;;;4.57;70.90;100676.31;5044339;28;20193;-70
2022/02/05 05:31:59;;;;;;;7.13;3.25;;;4.60;99.90;;;4.52;71.25;100651.00;5043953;28;20189;-70
2022/02/05 05:34:27;;;;;;;8.40;3.55;;;4.60;99.90;;;4.54;70.91;100657.88;5096521;22;20251;-69
2022/02/05 05:36:56;;;;;;;6.90;3.70;;;4.50;99.90;;;4.52;70.70;100646.50;5034243;28;20213;-69
2022/02/05 05:39:24;;;;;;;6.03;3.70;;;4.60;99.90;;;4.56;70.94;100652.34;5035554;28;20586;-69
2022/02/05 05:41:54;;;;;;;8.88;4.15;;;4.60;99.90;;;4.51;70.78;100654.69;5035935;28;20177;-69
2022/02/05 05:47:18;;;;;;;7.43;4.07;;;4.50;99.90;;;4.37;71.41;100664.25;5034917;28;20224;-68
2022/02/05 05:50:00;;;;;;;13.70;4.80;;;4.40;99.90;;;4.31;71.45;100670.25;5034806;28;20173;-69
2022/02/05 05:52:29;;;;;;;5.40;3.60;;;4.40;99.90;;;4.29;71.52;100674.97;5034373;28;20185;-69
2022/02/05 05:54:58;;;;;;;13.65;4.07;;;4.30;99.90;;;4.30;70.86;100668.63;5034477;28;20209;-69
2022/02/05 05:57:30;;;;;;;11.18;3.63;;;4.30;99.90;;;4.32;70.82;100675.47;5033203;28;20198;-68
2022/02/05 05:59:58;;;;;;;6.88;3.78;;;4.30;99.90;;;4.25;70.90;100666.44;5034323;28;20193;-69
2022/02/05 06:02:26;;;;;;;7.10;3.38;;;4.30;99.90;;;4.19;71.18;100671.63;5034522;28;20239;-69
2022/02/05 06:04:55;;;;;;;9.52;3.60;;;4.30;99.90;;;4.08;71.80;100675.44;5033814;28;20771;-69
2022/02/05 06:07:23;;;;;;;7.85;3.63;;;4.20;99.90;;;4.04;71.46;100673.28;5034389;28;20174;-68
2022/02/05 06:09:51;;;;;;;11.90;5.72;;;4.10;99.90;;;3.96;71.88;100675.94;5034211;28;20387;-69
2022/02/05 06:12:20;;;;;;;9.57;4.32;;;4.10;99.90;;;3.92;72.11;100670.91;5034084;28;20189;-69
2022/02/05 06:14:50;;;;;;;7.05;4.05;;;4.00;99.90;;;3.90;71.95;100682.78;5033855;28;20209;-69
2022/02/05 06:17:23;;;;;;;7.25;4.35;;;4.00;99.90;;;3.91;72.04;100685.31;5034075;28;20213;-70
2022/02/05 06:19:52;;;;;;;5.35;3.92;;;4.00;99.90;;;3.96;72.06;100682.13;5033672;28;20445;-69
2022/02/05 06:22:21;;;;;;;13.23;5.03;;;4.00;99.90;;;4.01;71.69;100693.19;5033580;28;20220;-69
2022/02/05 06:24:49;;;;;;;4.53;3.58;;;4.10;99.90;;;4.19;71.04;100695.72;5033430;28;20220;-69
2022/02/05 06:27:17;;;;;;;8.98;4.05;;;4.10;99.90;;;4.28;70.93;100700.06;5033567;28;20192;-69
2022/02/05 06:29:48;;;;;;;5.35;3.90;;;4.20;99.90;;;4.33;70.86;100690.53;5034145;28;20178;-70
2022/02/05 06:32:17;;;;;;;9.63;4.05;;;4.30;99.90;;;4.39;70.49;100699.75;5034289;28;20209;-69
2022/02/05 06:34:46;;;;;;;8.30;3.60;;;4.40;99.90;;;4.44;70.53;100697.41;5033200;28;20637;-69
2022/02/05 06:37:15;;;;;;;8.05;3.85;;;4.40;99.90;;;4.48;70.67;100698.75;5033578;28;20669;-69
2022/02/05 06:39:43;;;;;;;14.05;5.40;;;4.50;99.90;;;4.47;71.11;100713.16;5033961;28;20205;-69
2022/02/05 06:42:11;;;;;;;9.73;3.83;;;4.50;99.90;;;4.45;71.79;100717.84;5033801;28;20193;-69
2022/02/05 06:44:39;;;;;;;7.53;4.65;;;4.50;99.90;;;4.47;72.03;100721.19;5033347;28;20228;-68
2022/02/05 06:47:09;;;;;;;6.05;3.78;;;4.50;99.90;;;4.35;72.94;100741.28;5033658;28;20236;-68
2022/02/05 06:49:38;;;;;;;5.60;3.20;;;4.40;99.90;;;4.12;74.39;100745.56;5034138;28;20588;-69
2022/02/05 06:52:10;;;;;;;12.98;5.70;;;4.30;99.90;;;4.01;75.24;100746.75;5034278;28;20182;-69
2022/02/05 06:54:38;;;;;;;8.57;4.55;;;4.20;99.90;;;4.03;76.51;100762.63;5034025;28;20292;-69
2022/02/05 06:57:07;;;;;;;10.10;4.45;;;4.10;99.90;;;3.99;76.70;100767.47;5034031;28;20232;-69
2022/02/05 06:59:35;;;;;;;9.20;5.20;;;4.10;99.90;;;3.91;75.95;100765.63;5033415;28;20213;-69
2022/02/05 07:02:04;;;;;;;14.13;4.95;;;4.00;99.90;;;3.77;77.55;100795.69;5033475;28;20189;-69
2022/02/05 07:04:35;;;;;;;8.35;3.10;;;3.90;99.90;;;3.53;77.65;100781.34;5033541;28;20220;-69
2022/02/05 07:07:04;;;;;;;6.90;3.95;;;3.70;99.90;;;3.43;79.16;100779.63;5033486;28;20247;-69
2022/02/05 07:09:32;;;;;;;13.55;3.53;;;3.50;99.90;;;3.30;78.51;100781.03;5033441;28;20236;-70
2022/02/05 07:12:01;;;;;;;5.22;2.92;;;3.40;99.90;;;3.21;78.92;100784.66;5033247;28;20277;-70
2022/02/05 07:14:35;;;;;;;2.95;2.22;;;3.30;99.90;;;3.09;79.14;100784.09;5033176;28;20213;-70
2022/02/05 07:17:10;;;;;;;4.10;2.15;;;3.20;99.90;;;3.12;78.95;100804.31;5032698;28;20188;-69
2022/02/05 07:19:53;;;;;;;3.95;2.70;;;3.20;99.90;;;3.09;79.21;100804.63;5033036;28;20201;-70
2022/02/05 07:22:21;;;;;;;5.40;2.42;;;3.20;99.90;;;3.06;78.89;100790.56;5033448;28;20547;-70
2022/02/05 07:30:27;;;;;;;1.95;1.45;;;3.10;99.90;;;2.94;79.37;100813.22;5032756;28;20170;-70
2022/02/05 07:32:55;;;;;;;4.78;1.70;;;3.00;99.90;;;3.01;79.40;100819.59;5032623;28;20186;-69
2022/02/05 07:35:27;;;;;;;2.55;2.08;;;3.10;99.90;;;2.95;79.25;100820.22;5032896;28;20279;-70
2022/02/05 07:37:57;;;;;;;3.50;1.73;;;3.10;99.90;;;2.99;79.09;100826.97;5033079;28;20678;-70
2022/02/05 07:40:25;;;;;;;3.97;2.33;;;3.10;99.90;;;3.01;79.09;100834.81;5032650;28;20291;-70
2022/02/05 07:42:53;;;;;;;7.95;2.17;;;3.10;99.90;;;3.10;78.94;100835.72;5032614;28;20224;-70
2022/02/05 07:45:31;;;;;;;3.67;1.90;;;3.10;99.90;;;3.26;78.72;100838.50;5032670;28;20689;-70
2022/02/05 07:47:59;;;;;;;10.82;3.33;;;3.20;99.90;;;3.36;78.11;100839.25;5032852;28;20193;-69
2022/02/05 07:50:29;;;;;;;7.88;2.35;;;3.30;99.90;;;3.30;77.46;100850.56;5032765;28;20239;-70
2022/02/05 07:52:57;;;;;;;4.07;2.22;;;3.30;99.90;;;3.23;77.92;100850.38;5032322;28;20194;-70
2022/02/05 07:55:25;;;;;;;3.40;1.88;;;3.30;99.90;;;3.17;78.49;100861.69;5032051;28;20267;-69
2022/02/05 07:57:53;;;;;;;4.25;1.83;;;3.30;99.90;;;3.18;78.71;100857.19;5032349;28;20177;-69
2022/02/05 08:00:22;;;;;;;2.25;1.55;;;3.30;99.90;;;3.22;78.71;100853.19;5032281;28;20598;-70
2022/02/05 08:02:51;;;;;;;7.25;1.67;;;3.20;99.90;;;3.14;78.59;100858.50;5032396;28;20288;-72
2022/02/05 08:05:22;;;;;;;5.38;2.30;;;3.20;99.90;;;3.02;79.25;100853.38;5031707;28;20240;-70
2022/02/05 08:07:52;;;;;;;9.13;2.40;;;3.10;99.90;;;3.92;79.09;100862.84;5031879;28;20568;-69
2022/02/05 08:10:28;;;;;;;4.72;3.03;;;3.70;99.90;;;4.28;78.81;100858.97;5032000;28;20600;-71
2022/02/05 08:12:59;;;;;;;5.75;3.03;;;4.10;99.90;;;4.89;78.78;100857.75;5032058;28;20577;-70
2022/02/05 08:15:33;;;;;;;6.00;3.08;;;4.60;99.90;;;5.37;77.91;100870.34;5031896;28;20197;-71
2022/02/05 08:18:01;;;;;;;6.93;3.28;;;5.00;99.90;;;5.27;76.56;100869.69;5031751;28;20190;-68
2022/02/05 08:20:29;;;;;;;7.50;2.85;;;5.10;99.90;;;5.12;73.53;100884.75;5031991;28;20666;-69
2022/02/05 08:22:59;;;;;;;2.50;2.25;;;5.20;99.90;;;4.99;77.21;100882.56;5031851;28;20251;-69
2022/02/05 08:25:27;;;;;;;5.88;3.08;;;5.00;99.90;;;5.30;75.23;100887.28;5031731;28;20453;-69
2022/02/05 08:27:55;;;;;;;6.68;3.45;;;5.20;1.00;;;4.91;74.30;100876.34;5034170;28;20188;-69
2022/02/05 08:30:25;;;;;;;5.63;3.35;;;5.00;99.90;;;4.85;73.13;100882.38;5035690;28;20181;-69
2022/02/05 08:32:53;;;;;;;8.32;2.35;;;5.00;99.90;;;4.79;73.63;100887.38;5035566;28;20220;-69
2022/02/05 08:35:22;;;;;;;3.20;2.50;;;4.90;99.90;;;5.07;74.85;100887.94;5035515;28;20217;-70
2022/02/05 08:37:52;;;;;;;3.97;2.88;;;5.00;1.00;;;5.52;73.96;100892.78;5035756;28;20235;-72
2022/02/05 08:40:22;;;;;;;3.30;2.20;;;5.30;1.00;;;5.11;73.84;100899.19;5035593;28;20197;-70
2022/02/05 08:42:50;;;;;;;5.95;2.47;;;5.10;99.90;;;4.98;73.03;100907.72;5035664;28;20224;-70
2022/02/05 08:45:19;;;;;;;5.38;2.45;;;5.00;99.90;;;5.57;72.28;100895.78;5035391;28;20636;-69
2022/02/05 08:47:47;;;;;;;5.20;2.28;;;5.40;99.90;;;5.51;71.65;100907.22;5035537;28;20243;-70
2022/02/05 08:50:15;;;;;;;5.20;1.88;;;5.40;99.90;;;4.74;72.72;100907.69;5035748;28;20208;-71
2022/02/05 08:52:44;;;;;;;4.40;1.85;;;5.10;99.90;;;4.68;73.50;100902.97;5035666;28;20216;-68
2022/02/05 08:55:14;;;;;;;3.78;1.83;;;4.80;99.90;;;4.52;73.64;100914.47;5035414;28;20217;-71
2022/02/05 08:57:43;;;;;;;3.45;1.70;;;4.60;99.90;;;4.56;73.59;100925.69;5035662;28;20658;-70
2022/02/05 09:00:15;;;;;;;3.53;2.08;;;4.60;99.90;;;5.05;73.27;100923.97;5035299;28;20205;-69
2022/02/05 09:02:50;;;;;;;6.00;2.63;;;4.90;99.90;;;5.21;71.73;100918.63;5035904;28;20220;-69
2022/02/05 09:05:31;;;;;;;3.58;1.95;;;5.10;99.90;;;5.57;73.91;100922.63;5035130;28;20583;-68
2022/02/05 09:07:59;;;;;;;2.92;2.00;;;5.30;99.90;;;5.73;70.25;100921.78;5017472;28;20201;-69
2022/02/05 09:10:33;;;;;;;5.90;2.25;;;5.50;99.90;;;5.41;71.39;100916.47;5035164;28;20189;-70
2022/02/05 09:13:24;;;;;;;6.55;2.60;;;5.40;99.90;;;5.52;70.85;100935.72;5035162;28;20178;-68
2022/02/05 09:15:52;;;;;;;4.30;2.22;;;5.50;99.90;;;6.10;72.18;100946.25;5035099;28;20206;-71
2022/02/05 09:18:20;;;;;;;4.00;3.15;;;5.80;99.90;;;5.95;68.64;100937.25;5035013;28;20553;-70
2022/02/05 09:20:49;;;;;;;9.02;4.55;;;5.90;99.90;;;5.48;69.89;100958.53;5033582;28;20630;-69
2022/02/05 09:23:17;;;;;;;4.70;2.17;;;5.60;99.90;;;5.40;72.21;100947.81;5035433;28;20622;-70
2022/02/05 09:25:45;;;;;;;4.10;1.88;;;5.40;99.90;;;5.37;71.10;100953.53;5034966;28;20229;-69
2022/02/05 09:28:15;;;;;;;7.32;3.10;;;5.40;99.90;;;5.10;71.65;100965.41;5034939;28;20611;-69
2022/02/05 09:30:48;;;;;;;5.85;1.90;;;5.10;99.90;;;5.24;72.23;100964.75;5029748;28;20206;-69
2022/02/05 09:33:18;;;;;;;4.95;2.20;;;5.10;99.90;;;5.39;70.76;100956.03;5034888;28;20190;-69
2022/02/05 09:35:47;;;;;;;4.97;1.98;;;5.30;99.90;;;5.36;70.17;100959.91;5034955;28;20304;-68
2022/02/05 09:38:16;;;;;;;4.85;2.40;;;5.40;99.90;;;5.03;70.80;100971.59;5034690;28;20235;-69
2022/02/05 09:40:44;;;;;;;7.13;2.63;;;5.20;99.90;;;5.62;73.96;100957.88;5033809;28;20237;-69
2022/02/05 09:43:15;;;;;;;8.85;2.55;;;5.40;99.90;;;5.45;70.67;100972.31;5034136;28;20579;-69
2022/02/05 09:45:43;;;;;;;5.70;2.03;;;5.40;99.90;;;5.33;70.60;100970.94;5034786;28;20209;-69
2022/02/05 09:48:11;;;;;;;5.50;2.42;;;5.40;99.90;;;5.46;70.37;100995.47;5034757;28;20276;-69
2022/02/05 09:50:40;;;;;;;5.28;2.15;;;5.40;99.90;;;5.67;68.76;101000.31;5033949;28;20200;-69
2022/02/05 09:53:15;;;;;;;5.18;2.20;;;5.60;99.90;;;5.55;68.41;101005.19;5034557;28;20266;-69
2022/02/05 09:55:52;;;;;;;8.68;3.45;;;5.60;99.90;;;5.63;68.92;101009.72;5034704;28;20201;-69
2022/02/05 09:58:22;;;;;;;5.90;2.15;;;5.60;99.90;;;5.53;69.07;101004.53;5033088;28;20204;-69
2022/02/05 10:01:02;;;;;;;7.20;2.83;;;5.50;99.90;;;5.89;69.48;101014.97;5034382;28;20197;-69
2022/02/05 10:03:33;;;;;;;6.00;3.03;;;5.70;99.90;;;6.00;68.55;101014.63;5024593;28;20186;-69
2022/02/05 10:06:10;;;;;;;9.43;2.75;;;5.90;99.90;;;6.14;67.99;101022.00;5034833;28;20720;-69
2022/02/05 10:08:47;;;;;;;7.88;2.40;;;6.00;99.90;;;6.13;67.43;101014.09;5034809;28;20185;-69
2022/02/05 10:11:15;;;;;;;7.63;2.90;;;6.10;99.90;;;6.59;66.75;101012.44;5034526;28;20177;-69
2022/02/05 10:13:45;;;;;;;9.50;2.67;;;6.40;99.90;;;5.90;67.40;101019.34;5033711;28;20197;-69
2022/02/05 10:16:14;;;;;;;6.85;2.55;;;6.10;99.90;;;5.77;67.69;101018.94;5033873;28;20169;-70
2022/02/05 10:18:44;;;;;;;10.30;5.35;;;5.90;99.90;;;5.81;68.56;101031.88;5033559;28;20193;-70
2022/02/05 10:21:25;;;;;;;8.98;3.95;;;5.80;99.90;;;5.94;68.53;101026.88;5033052;28;20236;-70
2022/02/05 10:23:57;;;;;;;9.50;3.50;;;5.80;99.90;;;6.17;66.68;101027.03;5033315;28;20224;-69
2022/02/05 10:26:34;;;;;;;7.38;3.28;;;6.10;99.90;;;6.46;66.43;101032.66;5015576;28;20200;-69
2022/02/05 10:29:09;;;;;;;12.15;3.78;;;6.30;99.90;;;6.36;65.26;101037.41;5033692;28;20196;-70
2022/02/05 10:32:02;;;;;;;6.00;3.42;;;6.30;99.90;;;6.85;67.73;101037.25;5033947;28;20540;-69
2022/02/05 10:34:35;;;;;;;9.20;2.90;;;6.50;99.90;;;6.52;64.55;101031.16;5033502;28;20255;-69
2022/02/05 10:37:17;;;;;;;7.65;3.83;;;6.60;99.90;;;6.47;65.83;101036.19;5033939;28;20190;-70
2022/02/05 10:43:02;;;;;;;5.07;2.53;;;6.60;99.90;;;6.70;66.40;101045.19;5033654;28;20197;-69
2022/02/05 10:45:42;;;;;;;8.63;2.95;;;6.60;99.90;;;6.84;64.69;101035.56;5035757;28;20213;-70
2022/02/05 10:48:15;;;;;;;8.07;4.32;;;6.70;99.90;;;7.28;64.25;101039.38;5035967;28;20685;-70
2022/02/05 10:50:45;;;;;;;11.95;3.15;;;6.90;99.90;;;7.76;63.09;101031.97;5033028;28;20177;-69
2022/02/05 10:53:22;;;;;;;12.45;2.92;;;7.40;99.90;;;7.55;61.94;101034.50;5033282;28;20220;-69
2022/02/05 10:56:01;;;;;;;10.75;3.03;;;7.50;99.90;;;7.72;63.29;101036.06;5034090;28;20588;-70
2022/02/05 10:58:48;;;;;;;12.38;3.00;;;7.50;99.90;;;7.41;62.99;101038.78;5015720;28;20189;-69
2022/02/05 11:07:04;;;;;;;10.93;3.33;;;7.70;99.90;;;8.37;61.87;101035.50;5032601;28;20177;-69
2022/02/05 11:09:34;;;;;;;8.48;3.63;;;8.00;99.90;;;7.61;62.59;101045.38;5032603;28;20188;-70
2022/02/05 11:18:09;;;;;;;12.45;3.30;;;6.90;99.90;;;7.01;64.09;101037.19;5032686;28;20178;-70
2022/02/05 11:20:39;;;;;;;10.40;2.60;;;7.00;99.90;;;6.64;65.07;101040.50;5034169;28;20189;-70
2022/02/05 11:23:10;;;;;;;10.05;3.45;;;6.70;99.90;;;7.10;66.82;101037.97;5030721;28;20205;-70
2022/02/05 11:25:41;;;;;;;10.73;2.83;;;6.80;99.90;;;7.49;63.63;101035.22;5031213;28;20264;-70
2022/02/05 11:28:13;;;;;;;11.15;2.72;;;7.10;99.90;;;7.06;63.49;101029.44;5027731;28;20244;-69
2022/02/05 11:30:46;;;;;;;9.45;3.10;;;7.00;99.90;;;6.99;64.15;101023.91;5032269;28;20202;-70
2022/02/05 11:33:27;;;;;;;10.35;3.63;;;6.90;99.90;;;7.47;62.38;101037.25;5032416;28;20256;-69
2022/02/05 11:39:02;;;;;;;9.75;3.22;;;7.40;99.90;;;8.27;62.15;101025.81;4995547;28;20208;-70
2022/02/05 11:41:33;;;;;;;6.43;2.80;;;7.80;99.90;;;8.31;63.58;101028.16;5011447;28;20281;-69
2022/02/05 11:44:22;;;;;;;14.93;3.70;;;7.90;99.90;;;7.58;61.63;101028.75;5000246;28;20271;-71
2022/02/05 11:47:28;;;;;;;12.75;3.35;;;7.70;99.90;;;7.52;61.36;101024.06;5011136;28;20186;-69
2022/02/05 11:50:28;;;;;;;7.93;2.88;;;7.80;99.90;;;7.19;62.73;101023.44;5017733;28;20223;-70
2022/02/05 11:53:00;;;;;;;12.00;3.38;;;7.20;99.90;;;7.18;62.48;101013.69;4970276;28;20601;-70
2022/02/05 11:55:42;;;;;;;8.95;3.28;;;7.20;99.90;;;7.83;61.89;101019.47;5019955;28;20233;-70
2022/02/05 11:58:15;;;;;;;6.85;3.97;;;7.50;99.90;;;7.41;61.65;101020.78;5032229;28;20544;-69
2022/02/05 12:00:57;;;;;;;7.25;4.50;;;7.40;99.90;;;7.43;61.23;101026.00;5031503;28;20197;-67
2022/02/05 12:03:37;;;;;;;12.57;3.20;;;7.40;99.90;;;8.01;59.39;101030.75;5031268;28;20237;-70
2022/02/05 12:06:11;;;;;;;10.30;3.67;;;7.70;99.90;;;7.66;60.27;101020.59;5031849;28;20181;-70
2022/02/05 12:08:44;;;;;;;11.05;4.13;;;7.60;99.90;;;8.03;60.18;101036.81;5031490;28;20677;-69
2022/02/05 12:11:32;;;;;;;9.18;4.03;;;7.80;99.90;;;8.06;63.58;101028.34;5031781;28;20193;-70
2022/02/05 12:14:15;;;;;;;12.88;3.60;;;7.70;99.90;;;8.02;59.72;101037.00;5031427;28;20320;-68
2022/02/05 12:17:14;;;;;;;7.43;3.58;;;7.80;99.90;;;8.30;58.75;101024.63;5031199;28;20283;-70
2022/02/05 12:20:21;;;;;;;12.80;3.13;;;8.10;99.90;;;9.12;60.98;101018.06;5031060;28;20200;-67
2022/02/05 12:23:09;;;;;;;7.13;3.88;;;8.60;99.90;;;7.37;59.29;101034.78;4991970;28;20271;-69
2022/02/05 12:26:14;;;;;;;11.27;4.57;;;7.80;99.90;;;7.17;59.08;101029.00;5031578;28;20808;-70
2022/02/05 12:28:44;;;;;;;10.35;3.53;;;7.40;99.90;;;7.53;60.65;101036.53;5028994;28;20193;-70
2022/02/05 12:31:36;;;;;;;7.18;3.47;;;7.40;99.90;;;7.75;59.48;101024.91;5026764;28;20223;-70
2022/02/05 12:34:11;;;;;;;7.18;3.55;;;7.60;99.90;;;7.95;59.28;101030.63;5017107;28;20221;-69